sensor_id;sensor_type;location;lat;lon;timestamp;P1;durP1;ratioP1;P2;durP2;ratioP2
15982;SDS011;14442;50.196;8.096;2022-11-20T00:02:17;3.37;;;3.07;;
15982;SDS011;14442;50.196;8.096;2022-11-20T00:04:44;3.33;;;3.03;;
15982;SDS011;14442;50.196;8.096;2022-11-20T00:07:11;3.73;;;3.40;;
15982;SDS011;14442;50.196;8.096;2022-11-20T00:09:37;3.43;;;2.83;;
15982;SDS011;14442;50.196;8.096;2022-11-20T00:12:04;3.77;;;3.33;;
15982;SDS011;14442;50.196;8.096;2022-11-20T00:14:32;3.23;;;2.93;;
15982;SDS011;14442;50.196;8.096;2022-11-20T00:16:59;5.17;;;3.57;;
15982;SDS011;14442;50.196;8.096;2022-11-20T00:19:26;3.43;;;3.13;;
15982;SDS011;14442;50.196;8.096;2022-11-20T00:21:53;2.97;;;2.77;;
15982;SDS011;14442;50.196;8.096;2022-11-20T00:24:20;3.90;;;3.30;;
15982;SDS011;14442;50.196;8.096;2022-11-20T00:26:47;4.00;;;2.90;;
15982;SDS011;14442;50.196;8.096;2022-11-20T00:29:14;3.27;;;3.07;;
15982;SDS011;14442;50.196;8.096;2022-11-20T00:31:42;3.10;;;2.80;;
15982;SDS011;14442;50.196;8.096;2022-11-20T00:34:08;3.20;;;3.00;;
15982;SDS011;14442;50.196;8.096;2022-11-20T00:36:35;3.57;;;2.90;;
15982;SDS011;14442;50.196;8.096;2022-11-20T00:39:02;3.20;;;2.90;;
15982;SDS011;14442;50.196;8.096;2022-11-20T00:41:29;3.13;;;2.90;;
15982;SDS011;14442;50.196;8.096;2022-11-20T00:43:56;3.00;;;2.80;;
15982;SDS011;14442;50.196;8.096;2022-11-20T00:46:23;3.50;;;3.20;;
15982;SDS011;14442;50.196;8.096;2022-11-20T00:48:52;3.03;;;2.80;;
15982;SDS011;14442;50.196;8.096;2022-11-20T00:51:20;3.23;;;2.60;;
15982;SDS011;14442;50.196;8.096;2022-11-20T00:53:48;4.57;;;3.23;;
15982;SDS011;14442;50.196;8.096;2022-11-20T00:56:16;3.33;;;2.90;;
15982;SDS011;14442;50.196;8.096;2022-11-20T00:58:44;3.10;;;2.77;;
15982;SDS011;14442;50.196;8.096;2022-11-20T01:01:14;4.10;;;3.40;;
15982;SDS011;14442;50.196;8.096;2022-11-20T01:03:42;4.20;;;3.80;;
15982;SDS011;14442;50.196;8.096;2022-11-20T01:06:11;3.30;;;3.07;;
15982;SDS011;14442;50.196;8.096;2022-11-20T01:08:40;3.70;;;3.33;;
15982;SDS011;14442;50.196;8.096;2022-11-20T01:11:08;3.23;;;3.00;;
15982;SDS011;14442;50.196;8.096;2022-11-20T01:13:36;3.80;;;3.50;;
15982;SDS011;14442;50.196;8.096;2022-11-20T01:16:04;3.03;;;2.83;;
15982;SDS011;14442;50.196;8.096;2022-11-20T01:18:31;3.93;;;3.53;;
15982;SDS011;14442;50.196;8.096;2022-11-20T01:21:00;3.57;;;3.27;;
15982;SDS011;14442;50.196;8.096;2022-11-20T01:23:31;3.40;;;3.10;;
15982;SDS011;14442;50.196;8.096;2022-11-20T01:25:59;3.43;;;3.13;;
15982;SDS011;14442;50.196;8.096;2022-11-20T01:28:28;3.57;;;3.27;;
15982;SDS011;14442;50.196;8.096;2022-11-20T01:30:55;3.30;;;3.00;;
15982;SDS011;14442;50.196;8.096;2022-11-20T01:33:21;2.97;;;2.77;;
15982;SDS011;14442;50.196;8.096;2022-11-20T01:35:48;3.23;;;3.00;;
15982;SDS011;14442;50.196;8.096;2022-11-20T01:38:15;3.17;;;2.97;;
15982;SDS011;14442;50.196;8.096;2022-11-20T01:40:44;2.90;;;2.70;;
15982;SDS011;14442;50.196;8.096;2022-11-20T01:43:12;2.83;;;2.63;;
15982;SDS011;14442;50.196;8.096;2022-11-20T01:45:52;3.77;;;3.40;;
15982;SDS011;14442;50.196;8.096;2022-11-20T01:48:28;3.70;;;2.80;;
15982;SDS011;14442;50.196;8.096;2022-11-20T01:50:59;2.83;;;2.63;;
15982;SDS011;14442;50.196;8.096;2022-11-20T01:53:29;3.37;;;3.03;;
15982;SDS011;14442;50.196;8.096;2022-11-20T01:56:01;3.23;;;3.03;;
15982;SDS011;14442;50.196;8.096;2022-11-20T01:58:30;3.10;;;2.90;;
15982;SDS011;14442;50.196;8.096;2022-11-20T02:01:00;2.90;;;2.70;;
15982;SDS011;14442;50.196;8.096;2022-11-20T02:03:26;3.17;;;2.90;;
15982;SDS011;14442;50.196;8.096;2022-11-20T02:05:55;3.70;;;2.90;;
15982;SDS011;14442;50.196;8.096;2022-11-20T02:08:27;2.90;;;2.70;;
15982;SDS011;14442;50.196;8.096;2022-11-20T02:10:54;3.10;;;2.90;;
15982;SDS011;14442;50.196;8.096;2022-11-20T02:13:22;3.07;;;2.87;;
15982;SDS011;14442;50.196;8.096;2022-11-20T02:16:08;2.63;;;2.43;;
15982;SDS011;14442;50.196;8.096;2022-11-20T02:18:36;3.20;;;2.90;;
15982;SDS011;14442;50.196;8.096;2022-11-20T02:21:06;3.10;;;2.90;;
15982;SDS011;14442;50.196;8.096;2022-11-20T02:23:39;2.63;;;2.47;;
15982;SDS011;14442;50.196;8.096;2022-11-20T02:26:12;2.73;;;2.53;;
15982;SDS011;14442;50.196;8.096;2022-11-20T02:28:40;2.90;;;2.70;;
15982;SDS011;14442;50.196;8.096;2022-11-20T02:31:07;2.60;;;2.50;;
15982;SDS011;14442;50.196;8.096;2022-11-20T02:33:34;3.07;;;2.87;;
15982;SDS011;14442;50.196;8.096;2022-11-20T02:36:00;2.50;;;2.37;;
15982;SDS011;14442;50.196;8.096;2022-11-20T02:38:27;3.00;;;2.80;;
15982;SDS011;14442;50.196;8.096;2022-11-20T02:40:54;2.80;;;2.60;;
15982;SDS011;14442;50.196;8.096;2022-11-20T02:43:22;2.40;;;2.30;;
15982;SDS011;14442;50.196;8.096;2022-11-20T02:45:49;2.80;;;2.60;;
15982;SDS011;14442;50.196;8.096;2022-11-20T02:48:15;2.40;;;2.30;;
15982;SDS011;14442;50.196;8.096;2022-11-20T02:50:42;2.60;;;2.40;;
15982;SDS011;14442;50.196;8.096;2022-11-20T02:53:09;2.70;;;2.50;;
15982;SDS011;14442;50.196;8.096;2022-11-20T02:55:36;2.57;;;2.37;;
15982;SDS011;14442;50.196;8.096;2022-11-20T02:58:02;2.97;;;2.77;;
15982;SDS011;14442;50.196;8.096;2022-11-20T03:00:30;2.73;;;2.53;;
15982;SDS011;14442;50.196;8.096;2022-11-20T03:02:58;2.63;;;2.43;;
15982;SDS011;14442;50.196;8.096;2022-11-20T03:05:25;2.30;;;2.20;;
15982;SDS011;14442;50.196;8.096;2022-11-20T03:07:51;2.83;;;2.63;;
15982;SDS011;14442;50.196;8.096;2022-11-20T03:10:18;2.47;;;2.37;;
15982;SDS011;14442;50.196;8.096;2022-11-20T03:12:45;2.30;;;2.10;;
15982;SDS011;14442;50.196;8.096;2022-11-20T03:15:12;2.47;;;2.33;;
15982;SDS011;14442;50.196;8.096;2022-11-20T03:17:40;2.20;;;2.10;;
15982;SDS011;14442;50.196;8.096;2022-11-20T03:20:07;2.40;;;2.20;;
15982;SDS011;14442;50.196;8.096;2022-11-20T03:22:35;2.20;;;2.10;;
15982;SDS011;14442;50.196;8.096;2022-11-20T03:25:01;2.67;;;2.30;;
15982;SDS011;14442;50.196;8.096;2022-11-20T03:27:31;2.10;;;2.00;;
15982;SDS011;14442;50.196;8.096;2022-11-20T03:29:58;2.40;;;2.17;;
15982;SDS011;14442;50.196;8.096;2022-11-20T03:32:25;2.50;;;2.30;;
15982;SDS011;14442;50.196;8.096;2022-11-20T03:34:53;2.50;;;2.40;;
15982;SDS011;14442;50.196;8.096;2022-11-20T03:37:20;2.47;;;2.37;;
15982;SDS011;14442;50.196;8.096;2022-11-20T03:39:46;2.53;;;2.33;;
15982;SDS011;14442;50.196;8.096;2022-11-20T03:42:13;2.10;;;2.00;;
15982;SDS011;14442;50.196;8.096;2022-11-20T03:44:54;2.20;;;2.10;;
15982;SDS011;14442;50.196;8.096;2022-11-20T03:47:20;2.07;;;1.97;;
15982;SDS011;14442;50.196;8.096;2022-11-20T03:49:47;2.30;;;2.13;;
15982;SDS011;14442;50.196;8.096;2022-11-20T03:52:15;2.33;;;2.13;;
15982;SDS011;14442;50.196;8.096;2022-11-20T03:54:42;2.20;;;2.10;;
15982;SDS011;14442;50.196;8.096;2022-11-20T03:57:08;2.17;;;2.07;;
15982;SDS011;14442;50.196;8.096;2022-11-20T03:59:35;2.40;;;2.30;;
15982;SDS011;14442;50.196;8.096;2022-11-20T04:02:02;2.03;;;1.93;;
15982;SDS011;14442;50.196;8.096;2022-11-20T04:04:29;2.37;;;2.17;;
15982;SDS011;14442;50.196;8.096;2022-11-20T04:06:55;2.27;;;2.17;;
15982;SDS011;14442;50.196;8.096;2022-11-20T04:09:23;2.10;;;1.97;;
15982;SDS011;14442;50.196;8.096;2022-11-20T04:11:50;2.87;;;2.67;;
15982;SDS011;14442;50.196;8.096;2022-11-20T04:14:17;2.23;;;2.13;;
15982;SDS011;14442;50.196;8.096;2022-11-20T04:16:43;1.80;;;1.70;;
15982;SDS011;14442;50.196;8.096;2022-11-20T04:19:11;2.00;;;1.90;;
15982;SDS011;14442;50.196;8.096;2022-11-20T04:21:39;1.97;;;1.87;;
15982;SDS011;14442;50.196;8.096;2022-11-20T04:24:06;2.30;;;2.10;;
15982;SDS011;14442;50.196;8.096;2022-11-20T04:26:35;2.30;;;2.20;;
15982;SDS011;14442;50.196;8.096;2022-11-20T04:29:02;2.00;;;1.90;;
15982;SDS011;14442;50.196;8.096;2022-11-20T04:31:30;2.20;;;2.10;;
15982;SDS011;14442;50.196;8.096;2022-11-20T04:33:59;2.20;;;2.10;;
15982;SDS011;14442;50.196;8.096;2022-11-20T04:36:27;2.17;;;2.07;;
15982;SDS011;14442;50.196;8.096;2022-11-20T04:38:55;1.90;;;1.80;;
15982;SDS011;14442;50.196;8.096;2022-11-20T04:41:23;1.90;;;1.80;;
15982;SDS011;14442;50.196;8.096;2022-11-20T04:43:53;2.13;;;1.93;;
15982;SDS011;14442;50.196;8.096;2022-11-20T04:46:24;2.30;;;2.10;;
15982;SDS011;14442;50.196;8.096;2022-11-20T04:48:52;2.43;;;2.23;;
15982;SDS011;14442;50.196;8.096;2022-11-20T04:51:19;2.23;;;2.13;;
15982;SDS011;14442;50.196;8.096;2022-11-20T04:53:45;2.33;;;2.17;;
15982;SDS011;14442;50.196;8.096;2022-11-20T04:56:12;2.20;;;2.10;;
15982;SDS011;14442;50.196;8.096;2022-11-20T04:58:40;2.77;;;2.57;;
15982;SDS011;14442;50.196;8.096;2022-11-20T05:01:09;2.60;;;2.27;;
15982;SDS011;14442;50.196;8.096;2022-11-20T05:03:37;2.13;;;2.03;;
15982;SDS011;14442;50.196;8.096;2022-11-20T05:06:04;2.30;;;2.20;;
15982;SDS011;14442;50.196;8.096;2022-11-20T05:08:33;2.50;;;2.33;;
15982;SDS011;14442;50.196;8.096;2022-11-20T05:11:00;2.37;;;2.27;;
15982;SDS011;14442;50.196;8.096;2022-11-20T05:13:28;2.10;;;1.90;;
15982;SDS011;14442;50.196;8.096;2022-11-20T05:15:54;2.50;;;2.30;;
15982;SDS011;14442;50.196;8.096;2022-11-20T05:18:23;2.00;;;1.90;;
15982;SDS011;14442;50.196;8.096;2022-11-20T05:20:54;2.00;;;1.90;;
15982;SDS011;14442;50.196;8.096;2022-11-20T05:23:21;2.40;;;2.13;;
15982;SDS011;14442;50.196;8.096;2022-11-20T05:25:48;2.53;;;2.33;;
15982;SDS011;14442;50.196;8.096;2022-11-20T05:28:18;1.90;;;1.80;;
15982;SDS011;14442;50.196;8.096;2022-11-20T05:30:45;1.97;;;1.87;;
15982;SDS011;14442;50.196;8.096;2022-11-20T05:33:12;2.03;;;1.93;;
15982;SDS011;14442;50.196;8.096;2022-11-20T05:35:40;2.17;;;2.00;;
15982;SDS011;14442;50.196;8.096;2022-11-20T05:38:06;2.00;;;1.90;;
15982;SDS011;14442;50.196;8.096;2022-11-20T05:40:33;2.10;;;2.00;;
15982;SDS011;14442;50.196;8.096;2022-11-20T05:43:00;2.00;;;1.90;;
15982;SDS011;14442;50.196;8.096;2022-11-20T05:45:27;2.00;;;1.90;;
15982;SDS011;14442;50.196;8.096;2022-11-20T05:47:57;1.70;;;1.60;;
15982;SDS011;14442;50.196;8.096;2022-11-20T05:50:24;2.00;;;1.90;;
15982;SDS011;14442;50.196;8.096;2022-11-20T05:52:52;1.80;;;1.70;;
15982;SDS011;14442;50.196;8.096;2022-11-20T05:55:19;2.20;;;2.00;;
15982;SDS011;14442;50.196;8.096;2022-11-20T05:57:45;2.20;;;2.10;;
15982;SDS011;14442;50.196;8.096;2022-11-20T06:00:13;2.40;;;2.30;;
15982;SDS011;14442;50.196;8.096;2022-11-20T06:02:40;2.30;;;2.20;;
15982;SDS011;14442;50.196;8.096;2022-11-20T06:05:07;2.10;;;2.00;;
15982;SDS011;14442;50.196;8.096;2022-11-20T06:07:34;2.10;;;2.00;;
15982;SDS011;14442;50.196;8.096;2022-11-20T06:10:02;2.17;;;2.07;;
15982;SDS011;14442;50.196;8.096;2022-11-20T06:12:30;2.00;;;1.90;;
15982;SDS011;14442;50.196;8.096;2022-11-20T06:14:58;1.90;;;1.80;;
15982;SDS011;14442;50.196;8.096;2022-11-20T06:17:25;2.23;;;2.13;;
15982;SDS011;14442;50.196;8.096;2022-11-20T06:19:52;1.93;;;1.83;;
15982;SDS011;14442;50.196;8.096;2022-11-20T06:22:19;1.80;;;1.70;;
15982;SDS011;14442;50.196;8.096;2022-11-20T06:24:46;2.43;;;2.33;;
15982;SDS011;14442;50.196;8.096;2022-11-20T06:27:14;2.00;;;1.90;;
15982;SDS011;14442;50.196;8.096;2022-11-20T06:29:41;2.00;;;1.90;;
15982;SDS011;14442;50.196;8.096;2022-11-20T06:32:08;1.97;;;1.87;;
15982;SDS011;14442;50.196;8.096;2022-11-20T06:34:35;2.03;;;1.93;;
15982;SDS011;14442;50.196;8.096;2022-11-20T06:37:02;1.83;;;1.73;;
15982;SDS011;14442;50.196;8.096;2022-11-20T06:39:28;1.80;;;1.70;;
15982;SDS011;14442;50.196;8.096;2022-11-20T06:41:55;2.10;;;2.00;;
15982;SDS011;14442;50.196;8.096;2022-11-20T06:44:23;2.00;;;1.90;;
15982;SDS011;14442;50.196;8.096;2022-11-20T06:46:50;2.33;;;2.13;;
15982;SDS011;14442;50.196;8.096;2022-11-20T06:49:17;1.93;;;1.80;;
15982;SDS011;14442;50.196;8.096;2022-11-20T06:51:43;1.97;;;1.87;;
15982;SDS011;14442;50.196;8.096;2022-11-20T06:54:10;1.80;;;1.70;;
15982;SDS011;14442;50.196;8.096;2022-11-20T06:56:37;2.17;;;2.07;;
15982;SDS011;14442;50.196;8.096;2022-11-20T06:59:04;1.97;;;1.80;;
15982;SDS011;14442;50.196;8.096;2022-11-20T07:01:33;2.00;;;1.90;;
15982;SDS011;14442;50.196;8.096;2022-11-20T07:04:00;1.97;;;1.87;;
15982;SDS011;14442;50.196;8.096;2022-11-20T07:06:27;1.93;;;1.83;;
15982;SDS011;14442;50.196;8.096;2022-11-20T07:08:53;2.10;;;2.00;;
15982;SDS011;14442;50.196;8.096;2022-11-20T07:11:20;2.47;;;2.33;;
15982;SDS011;14442;50.196;8.096;2022-11-20T07:13:47;12.30;;;3.20;;
15982;SDS011;14442;50.196;8.096;2022-11-20T07:16:13;7.57;;;2.53;;
15982;SDS011;14442;50.196;8.096;2022-11-20T07:18:41;7.40;;;2.67;;
15982;SDS011;14442;50.196;8.096;2022-11-20T07:21:09;9.93;;;3.03;;
15982;SDS011;14442;50.196;8.096;2022-11-20T07:23:36;10.47;;;2.70;;
15982;SDS011;14442;50.196;8.096;2022-11-20T07:26:03;8.77;;;2.63;;
15982;SDS011;14442;50.196;8.096;2022-11-20T07:28:31;5.23;;;2.60;;
15982;SDS011;14442;50.196;8.096;2022-11-20T07:30:57;4.23;;;2.33;;
15982;SDS011;14442;50.196;8.096;2022-11-20T07:33:24;5.90;;;2.97;;
15982;SDS011;14442;50.196;8.096;2022-11-20T07:35:52;6.67;;;2.90;;
15982;SDS011;14442;50.196;8.096;2022-11-20T07:38:19;6.23;;;2.53;;
15982;SDS011;14442;50.196;8.096;2022-11-20T07:40:45;4.87;;;2.63;;
15982;SDS011;14442;50.196;8.096;2022-11-20T07:43:12;8.43;;;3.10;;
15982;SDS011;14442;50.196;8.096;2022-11-20T07:45:39;7.50;;;2.90;;
15982;SDS011;14442;50.196;8.096;2022-11-20T07:48:06;7.00;;;3.00;;
15982;SDS011;14442;50.196;8.096;2022-11-20T07:50:32;8.93;;;3.17;;
15982;SDS011;14442;50.196;8.096;2022-11-20T07:53:04;3.93;;;2.43;;
15982;SDS011;14442;50.196;8.096;2022-11-20T07:55:31;5.27;;;3.30;;
15982;SDS011;14442;50.196;8.096;2022-11-20T07:57:58;7.43;;;3.47;;
15982;SDS011;14442;50.196;8.096;2022-11-20T08:00:25;4.57;;;3.00;;
15982;SDS011;14442;50.196;8.096;2022-11-20T08:02:52;5.20;;;2.57;;
15982;SDS011;14442;50.196;8.096;2022-11-20T08:05:19;3.53;;;3.20;;
15982;SDS011;14442;50.196;8.096;2022-11-20T08:07:46;8.17;;;3.63;;
15982;SDS011;14442;50.196;8.096;2022-11-20T08:10:15;7.90;;;3.60;;
15982;SDS011;14442;50.196;8.096;2022-11-20T08:12:45;2.93;;;2.43;;
15982;SDS011;14442;50.196;8.096;2022-11-20T08:15:30;5.70;;;2.90;;
15982;SDS011;14442;50.196;8.096;2022-11-20T08:18:01;4.57;;;3.20;;
15982;SDS011;14442;50.196;8.096;2022-11-20T08:20:29;6.40;;;3.10;;
15982;SDS011;14442;50.196;8.096;2022-11-20T08:22:59;5.00;;;2.80;;
15982;SDS011;14442;50.196;8.096;2022-11-20T08:25:28;3.67;;;2.53;;
15982;SDS011;14442;50.196;8.096;2022-11-20T08:27:56;5.60;;;2.87;;
15982;SDS011;14442;50.196;8.096;2022-11-20T08:30:24;5.60;;;3.23;;
15982;SDS011;14442;50.196;8.096;2022-11-20T08:32:51;3.63;;;2.70;;
15982;SDS011;14442;50.196;8.096;2022-11-20T08:35:17;4.57;;;2.37;;
15982;SDS011;14442;50.196;8.096;2022-11-20T08:37:45;2.57;;;2.37;;
15982;SDS011;14442;50.196;8.096;2022-11-20T08:40:12;3.00;;;2.40;;
15982;SDS011;14442;50.196;8.096;2022-11-20T08:42:46;5.27;;;2.40;;
15982;SDS011;14442;50.196;8.096;2022-11-20T08:45:13;3.13;;;2.63;;
15982;SDS011;14442;50.196;8.096;2022-11-20T08:47:40;4.20;;;2.40;;
15982;SDS011;14442;50.196;8.096;2022-11-20T08:50:07;5.90;;;2.00;;
15982;SDS011;14442;50.196;8.096;2022-11-20T08:52:34;4.20;;;2.20;;
15982;SDS011;14442;50.196;8.096;2022-11-20T08:55:01;3.80;;;2.20;;
15982;SDS011;14442;50.196;8.096;2022-11-20T08:57:30;5.10;;;2.23;;
15982;SDS011;14442;50.196;8.096;2022-11-20T08:59:59;3.43;;;2.40;;
15982;SDS011;14442;50.196;8.096;2022-11-20T09:02:26;4.17;;;2.40;;
15982;SDS011;14442;50.196;8.096;2022-11-20T09:04:52;2.50;;;1.80;;
15982;SDS011;14442;50.196;8.096;2022-11-20T09:07:19;2.17;;;1.97;;
15982;SDS011;14442;50.196;8.096;2022-11-20T09:09:46;3.27;;;2.00;;
15982;SDS011;14442;50.196;8.096;2022-11-20T09:12:13;3.13;;;2.10;;
15982;SDS011;14442;50.196;8.096;2022-11-20T09:14:40;3.90;;;2.03;;
15982;SDS011;14442;50.196;8.096;2022-11-20T09:17:08;2.40;;;2.20;;
15982;SDS011;14442;50.196;8.096;2022-11-20T09:19:38;11.73;;;2.50;;
15982;SDS011;14442;50.196;8.096;2022-11-20T09:22:05;16.27;;;2.60;;
15982;SDS011;14442;50.196;8.096;2022-11-20T09:24:31;5.13;;;2.67;;
15982;SDS011;14442;50.196;8.096;2022-11-20T09:27:03;9.57;;;2.40;;
15982;SDS011;14442;50.196;8.096;2022-11-20T09:29:30;6.67;;;2.30;;
15982;SDS011;14442;50.196;8.096;2022-11-20T09:31:57;5.00;;;2.40;;
15982;SDS011;14442;50.196;8.096;2022-11-20T09:34:25;4.03;;;2.17;;
15982;SDS011;14442;50.196;8.096;2022-11-20T09:36:52;7.63;;;2.53;;
15982;SDS011;14442;50.196;8.096;2022-11-20T09:39:18;5.20;;;1.80;;
15982;SDS011;14442;50.196;8.096;2022-11-20T09:41:49;14.53;;;2.00;;
15982;SDS011;14442;50.196;8.096;2022-11-20T09:44:33;5.50;;;1.83;;
15982;SDS011;14442;50.196;8.096;2022-11-20T09:47:11;4.77;;;1.67;;
15982;SDS011;14442;50.196;8.096;2022-11-20T09:49:51;7.67;;;2.20;;
15982;SDS011;14442;50.196;8.096;2022-11-20T09:52:27;2.87;;;1.80;;
15982;SDS011;14442;50.196;8.096;2022-11-20T09:54:59;5.73;;;1.80;;
15982;SDS011;14442;50.196;8.096;2022-11-20T09:57:30;4.30;;;1.53;;
15982;SDS011;14442;50.196;8.096;2022-11-20T10:00:02;7.30;;;1.80;;
15982;SDS011;14442;50.196;8.096;2022-11-20T10:02:34;1.93;;;1.73;;
15982;SDS011;14442;50.196;8.096;2022-11-20T10:05:10;1.97;;;1.30;;
15982;SDS011;14442;50.196;8.096;2022-11-20T10:07:44;2.97;;;1.80;;
15982;SDS011;14442;50.196;8.096;2022-11-20T10:10:21;2.17;;;1.60;;
15982;SDS011;14442;50.196;8.096;2022-11-20T10:13:06;3.37;;;1.87;;
15982;SDS011;14442;50.196;8.096;2022-11-20T10:15:42;2.70;;;1.60;;
15982;SDS011;14442;50.196;8.096;2022-11-20T10:18:21;2.40;;;1.50;;
15982;SDS011;14442;50.196;8.096;2022-11-20T10:21:00;2.13;;;1.60;;
15982;SDS011;14442;50.196;8.096;2022-11-20T10:23:48;4.43;;;1.50;;
15982;SDS011;14442;50.196;8.096;2022-11-20T10:26:41;5.60;;;1.70;;
15982;SDS011;14442;50.196;8.096;2022-11-20T10:29:15;6.47;;;1.60;;
15982;SDS011;14442;50.196;8.096;2022-11-20T10:31:44;5.67;;;1.40;;
15982;SDS011;14442;50.196;8.096;2022-11-20T10:34:17;4.77;;;1.67;;
15982;SDS011;14442;50.196;8.096;2022-11-20T10:36:50;6.87;;;1.70;;
15982;SDS011;14442;50.196;8.096;2022-11-20T10:39:22;5.10;;;1.57;;
15982;SDS011;14442;50.196;8.096;2022-11-20T10:41:56;3.80;;;1.50;;
15982;SDS011;14442;50.196;8.096;2022-11-20T10:44:26;4.43;;;1.37;;
15982;SDS011;14442;50.196;8.096;2022-11-20T10:47:12;3.30;;;1.13;;
15982;SDS011;14442;50.196;8.096;2022-11-20T10:49:40;2.20;;;1.10;;
15982;SDS011;14442;50.196;8.096;2022-11-20T10:52:11;3.77;;;1.30;;
15982;SDS011;14442;50.196;8.096;2022-11-20T10:54:46;2.10;;;1.30;;
15982;SDS011;14442;50.196;8.096;2022-11-20T10:57:22;2.87;;;1.00;;
15982;SDS011;14442;50.196;8.096;2022-11-20T10:59:59;2.27;;;1.10;;
15982;SDS011;14442;50.196;8.096;2022-11-20T11:02:34;3.13;;;1.20;;
15982;SDS011;14442;50.196;8.096;2022-11-20T11:05:08;1.30;;;1.20;;
15982;SDS011;14442;50.196;8.096;2022-11-20T11:07:42;1.23;;;0.90;;
15982;SDS011;14442;50.196;8.096;2022-11-20T11:10:13;1.30;;;0.97;;
15982;SDS011;14442;50.196;8.096;2022-11-20T11:12:43;1.67;;;0.93;;
15982;SDS011;14442;50.196;8.096;2022-11-20T11:15:12;1.70;;;1.60;;
15982;SDS011;14442;50.196;8.096;2022-11-20T11:17:50;2.70;;;1.10;;
15982;SDS011;14442;50.196;8.096;2022-11-20T11:20:17;5.50;;;1.20;;
15982;SDS011;14442;50.196;8.096;2022-11-20T11:22:48;3.03;;;1.10;;
15982;SDS011;14442;50.196;8.096;2022-11-20T11:25:20;7.70;;;1.70;;
15982;SDS011;14442;50.196;8.096;2022-11-20T11:27:56;3.90;;;1.43;;
15982;SDS011;14442;50.196;8.096;2022-11-20T11:30:25;4.00;;;1.47;;
15982;SDS011;14442;50.196;8.096;2022-11-20T11:33:02;3.87;;;1.10;;
15982;SDS011;14442;50.196;8.096;2022-11-20T11:35:31;3.43;;;0.90;;
15982;SDS011;14442;50.196;8.096;2022-11-20T11:38:03;3.57;;;1.03;;
15982;SDS011;14442;50.196;8.096;2022-11-20T11:40:32;2.83;;;1.30;;
15982;SDS011;14442;50.196;8.096;2022-11-20T11:43:02;2.13;;;1.13;;
15982;SDS011;14442;50.196;8.096;2022-11-20T11:45:52;2.77;;;1.20;;
15982;SDS011;14442;50.196;8.096;2022-11-20T11:48:19;1.60;;;1.13;;
15982;SDS011;14442;50.196;8.096;2022-11-20T11:50:48;3.20;;;1.30;;
15982;SDS011;14442;50.196;8.096;2022-11-20T11:53:17;4.50;;;1.60;;
15982;SDS011;14442;50.196;8.096;2022-11-20T11:55:46;2.60;;;1.70;;
15982;SDS011;14442;50.196;8.096;2022-11-20T11:58:20;3.27;;;2.10;;
15982;SDS011;14442;50.196;8.096;2022-11-20T12:01:02;4.17;;;2.33;;
15982;SDS011;14442;50.196;8.096;2022-11-20T12:03:34;4.53;;;2.00;;
15982;SDS011;14442;50.196;8.096;2022-11-20T12:06:04;8.80;;;2.60;;
15982;SDS011;14442;50.196;8.096;2022-11-20T12:08:39;13.90;;;3.37;;
15982;SDS011;14442;50.196;8.096;2022-11-20T12:11:11;8.73;;;3.10;;
15982;SDS011;14442;50.196;8.096;2022-11-20T12:13:44;9.57;;;3.40;;
15982;SDS011;14442;50.196;8.096;2022-11-20T12:16:15;13.37;;;3.17;;
15982;SDS011;14442;50.196;8.096;2022-11-20T12:18:45;7.07;;;2.70;;
15982;SDS011;14442;50.196;8.096;2022-11-20T12:21:20;16.07;;;2.93;;
15982;SDS011;14442;50.196;8.096;2022-11-20T12:24:01;14.43;;;3.03;;
15982;SDS011;14442;50.196;8.096;2022-11-20T12:26:50;15.03;;;3.00;;
15982;SDS011;14442;50.196;8.096;2022-11-20T12:29:30;11.20;;;2.83;;
15982;SDS011;14442;50.196;8.096;2022-11-20T12:32:13;11.90;;;2.53;;
15982;SDS011;14442;50.196;8.096;2022-11-20T12:34:59;22.07;;;3.63;;
15982;SDS011;14442;50.196;8.096;2022-11-20T12:37:33;15.47;;;3.57;;
15982;SDS011;14442;50.196;8.096;2022-11-20T12:40:09;17.63;;;3.27;;
15982;SDS011;14442;50.196;8.096;2022-11-20T12:42:52;14.17;;;3.10;;
15982;SDS011;14442;50.196;8.096;2022-11-20T12:45:50;13.20;;;2.60;;
15982;SDS011;14442;50.196;8.096;2022-11-20T12:48:29;10.57;;;2.57;;
15982;SDS011;14442;50.196;8.096;2022-11-20T12:51:20;11.13;;;3.07;;
15982;SDS011;14442;50.196;8.096;2022-11-20T12:54:24;12.20;;;2.47;;
15982;SDS011;14442;50.196;8.096;2022-11-20T12:57:09;10.00;;;2.40;;
15982;SDS011;14442;50.196;8.096;2022-11-20T12:59:49;11.17;;;2.23;;
15982;SDS011;14442;50.196;8.096;2022-11-20T13:02:26;12.17;;;2.27;;
15982;SDS011;14442;50.196;8.096;2022-11-20T13:05:05;8.57;;;2.20;;
15982;SDS011;14442;50.196;8.096;2022-11-20T13:07:44;7.20;;;2.03;;
15982;SDS011;14442;50.196;8.096;2022-11-20T13:10:13;6.60;;;2.00;;
15982;SDS011;14442;50.196;8.096;2022-11-20T13:12:48;7.10;;;2.10;;
15982;SDS011;14442;50.196;8.096;2022-11-20T13:15:26;9.63;;;1.70;;
15982;SDS011;14442;50.196;8.096;2022-11-20T13:18:02;5.10;;;1.90;;
15982;SDS011;14442;50.196;8.096;2022-11-20T13:20:33;10.10;;;2.47;;
15982;SDS011;14442;50.196;8.096;2022-11-20T13:23:02;6.13;;;2.23;;
15982;SDS011;14442;50.196;8.096;2022-11-20T13:25:29;7.53;;;1.87;;
15982;SDS011;14442;50.196;8.096;2022-11-20T13:27:59;6.83;;;2.20;;
15982;SDS011;14442;50.196;8.096;2022-11-20T13:30:27;6.10;;;2.07;;
15982;SDS011;14442;50.196;8.096;2022-11-20T13:32:55;6.60;;;1.57;;
15982;SDS011;14442;50.196;8.096;2022-11-20T13:35:29;3.43;;;1.80;;
15982;SDS011;14442;50.196;8.096;2022-11-20T13:38:05;4.20;;;1.60;;
15982;SDS011;14442;50.196;8.096;2022-11-20T13:40:33;3.17;;;1.67;;
15982;SDS011;14442;50.196;8.096;2022-11-20T13:43:18;4.30;;;1.77;;
15982;SDS011;14442;50.196;8.096;2022-11-20T13:45:54;4.57;;;1.90;;
15982;SDS011;14442;50.196;8.096;2022-11-20T13:48:24;4.93;;;1.73;;
15982;SDS011;14442;50.196;8.096;2022-11-20T13:50:55;3.13;;;1.57;;
15982;SDS011;14442;50.196;8.096;2022-11-20T13:56:28;7.40;;;1.40;;
15982;SDS011;14442;50.196;8.096;2022-11-20T13:59:07;1.20;;;1.10;;
15982;SDS011;14442;50.196;8.096;2022-11-20T14:01:38;4.77;;;1.37;;
15982;SDS011;14442;50.196;8.096;2022-11-20T14:04:06;5.10;;;1.53;;
15982;SDS011;14442;50.196;8.096;2022-11-20T14:06:39;4.40;;;1.40;;
15982;SDS011;14442;50.196;8.096;2022-11-20T14:09:10;5.07;;;1.50;;
15982;SDS011;14442;50.196;8.096;2022-11-20T14:11:45;4.20;;;1.30;;
15982;SDS011;14442;50.196;8.096;2022-11-20T14:14:15;5.20;;;1.60;;
15982;SDS011;14442;50.196;8.096;2022-11-20T14:16:44;2.47;;;1.50;;
15982;SDS011;14442;50.196;8.096;2022-11-20T14:19:19;1.80;;;1.20;;
15982;SDS011;14442;50.196;8.096;2022-11-20T14:21:52;2.43;;;1.47;;
15982;SDS011;14442;50.196;8.096;2022-11-20T14:24:20;3.60;;;1.50;;
15982;SDS011;14442;50.196;8.096;2022-11-20T14:26:48;4.70;;;1.53;;
15982;SDS011;14442;50.196;8.096;2022-11-20T14:29:18;3.50;;;1.00;;
15982;SDS011;14442;50.196;8.096;2022-11-20T14:31:47;2.60;;;1.20;;
15982;SDS011;14442;50.196;8.096;2022-11-20T14:34:18;3.30;;;1.10;;
15982;SDS011;14442;50.196;8.096;2022-11-20T14:36:47;2.60;;;1.10;;
15982;SDS011;14442;50.196;8.096;2022-11-20T14:39:19;4.47;;;0.93;;
15982;SDS011;14442;50.196;8.096;2022-11-20T14:41:50;4.90;;;1.00;;
15982;SDS011;14442;50.196;8.096;2022-11-20T14:44:18;2.87;;;1.10;;
15982;SDS011;14442;50.196;8.096;2022-11-20T14:46:49;3.87;;;1.40;;
15982;SDS011;14442;50.196;8.096;2022-11-20T14:49:17;4.03;;;1.27;;
15982;SDS011;14442;50.196;8.096;2022-11-20T14:51:44;5.37;;;1.40;;
15982;SDS011;14442;50.196;8.096;2022-11-20T14:54:11;2.47;;;1.00;;
15982;SDS011;14442;50.196;8.096;2022-11-20T14:56:40;3.60;;;1.30;;
15982;SDS011;14442;50.196;8.096;2022-11-20T14:59:07;2.90;;;1.20;;
15982;SDS011;14442;50.196;8.096;2022-11-20T15:01:35;4.00;;;1.30;;
15982;SDS011;14442;50.196;8.096;2022-11-20T15:04:05;3.37;;;1.57;;
15982;SDS011;14442;50.196;8.096;2022-11-20T15:06:34;3.80;;;1.33;;
15982;SDS011;14442;50.196;8.096;2022-11-20T15:09:02;2.77;;;1.20;;